createdAt,value
2022-09-06T00:02:45.628Z,2.15
2022-09-06T00:07:47.525Z,1.73
2022-09-06T00:12:49.249Z,1.50
2022-09-06T00:17:51.642Z,1.95
2022-09-06T00:23:00.926Z,2.00
2022-09-06T00:28:04.453Z,1.80
2022-09-06T00:33:06.220Z,2.00
2022-09-06T00:38:07.948Z,2.10
2022-09-06T00:43:09.671Z,1.90
2022-09-06T00:48:11.679Z,1.92
2022-09-06T00:53:13.643Z,1.80
2022-09-06T00:58:15.789Z,1.83
2022-09-06T01:03:19.090Z,2.00
2022-09-06T01:09:01.915Z,2.00
2022-09-06T01:14:25.813Z,2.10
2022-09-06T01:19:59.229Z,2.13
2022-09-06T01:25:22.032Z,2.15
2022-09-06T01:30:24.629Z,1.88
2022-09-06T01:35:40.976Z,2.33
2022-09-06T01:40:42.991Z,2.08
2022-09-06T01:46:15.049Z,2.10
2022-09-06T01:52:02.745Z,2.38
2022-09-06T01:57:24.670Z,2.22
2022-09-06T02:02:42.824Z,1.98
2022-09-06T02:07:47.501Z,2.40
2022-09-06T02:12:54.281Z,2.17
2022-09-06T02:18:11.865Z,2.00
2022-09-06T02:23:16.409Z,2.10
2022-09-06T02:28:18.916Z,2.30
2022-09-06T02:33:24.424Z,2.25
2022-09-06T02:38:27.262Z,2.10
2022-09-06T02:43:29.152Z,2.40
2022-09-06T02:48:30.869Z,2.10
2022-09-06T02:53:32.983Z,2.20
2022-09-06T02:58:35.585Z,2.40
2022-09-06T03:03:37.353Z,2.10
2022-09-06T03:08:39.117Z,2.58
2022-09-06T03:13:41.005Z,2.33
2022-09-06T03:18:42.791Z,2.30
2022-09-06T03:23:45.853Z,2.55
2022-09-06T03:28:47.675Z,2.43
2022-09-06T03:33:49.402Z,2.50
2022-09-06T03:38:51.464Z,2.60
2022-09-06T03:43:53.181Z,2.72
2022-09-06T03:48:54.931Z,2.90
2022-09-06T03:53:57.721Z,2.50
2022-09-06T03:58:59.591Z,2.40
2022-09-06T04:04:01.385Z,2.60
2022-09-06T04:09:03.641Z,2.75
2022-09-06T04:14:05.404Z,2.40
2022-09-06T04:19:07.207Z,2.83
2022-09-06T04:24:08.956Z,3.22
2022-09-06T04:29:10.688Z,2.83
2022-09-06T04:34:12.417Z,2.65
2022-09-06T04:39:14.544Z,2.90
2022-09-06T04:44:16.289Z,2.40
2022-09-06T04:49:18.025Z,2.33
2022-09-06T04:54:19.815Z,2.80
2022-09-06T04:59:21.679Z,2.50
2022-09-06T05:04:23.495Z,2.58
2022-09-06T05:09:25.229Z,2.28
2022-09-06T05:14:28.093Z,2.53
2022-09-06T05:19:29.859Z,3.47
2022-09-06T05:24:31.627Z,2.95
2022-09-06T05:29:33.881Z,3.00
2022-09-06T05:34:35.619Z,2.92
2022-09-06T05:39:37.500Z,3.03
2022-09-06T05:44:39.304Z,2.75
2022-09-06T05:49:41.256Z,3.30
2022-09-06T05:54:43.034Z,3.13
2022-09-06T05:59:44.749Z,2.67
2022-09-06T06:04:46.961Z,3.28
2022-09-06T06:09:48.755Z,3.17
2022-09-06T06:14:50.506Z,3.38
2022-09-06T06:19:52.297Z,3.25
2022-09-06T06:24:54.076Z,2.72
2022-09-06T06:29:55.803Z,3.50
2022-09-06T06:34:57.523Z,3.03
2022-09-06T06:39:59.315Z,3.45
2022-09-06T06:45:01.071Z,3.45
2022-09-06T06:50:02.823Z,3.50
2022-09-06T06:55:05.952Z,3.22
2022-09-06T07:00:08.342Z,3.20
2022-09-06T07:15:39.166Z,3.33
2022-09-06T07:26:02.727Z,3.05
2022-09-06T07:31:04.630Z,3.53
2022-09-06T07:36:08.231Z,3.40
2022-09-06T07:41:11.045Z,3.72
2022-09-06T07:46:17.247Z,4.07
2022-09-06T07:51:21.076Z,3.00
2022-09-06T07:56:24.515Z,3.55
2022-09-06T08:01:30.995Z,2.97
2022-09-06T08:11:57.621Z,2.80
2022-09-06T08:16:59.507Z,2.58
2022-09-06T08:22:01.243Z,2.42
2022-09-06T08:27:03.703Z,3.10
2022-09-06T08:32:05.533Z,3.13
2022-09-06T08:37:07.271Z,2.95
2022-09-06T08:42:11.080Z,2.53
2022-09-06T08:47:20.808Z,2.58
2022-09-06T08:53:13.673Z,2.80
2022-09-06T08:59:06.517Z,2.53
2022-09-06T09:04:15.073Z,2.78
2022-09-06T09:09:16.813Z,2.30
2022-09-06T09:14:27.569Z,2.10
2022-09-06T09:19:33.420Z,2.10
2022-09-06T09:24:36.324Z,2.45
2022-09-06T09:35:33.049Z,2.83
2022-09-06T09:40:59.751Z,2.10
2022-09-06T09:46:12.346Z,2.60
2022-09-06T09:56:46.903Z,2.20
2022-09-06T10:01:49.706Z,2.75
2022-09-06T10:12:18.628Z,2.40
2022-09-06T10:17:31.243Z,1.90
2022-09-06T10:22:39.655Z,1.90
2022-09-06T10:28:12.329Z,2.33
2022-09-06T10:33:41.007Z,1.80
2022-09-06T10:39:13.168Z,1.25
2022-09-06T10:44:53.677Z,1.73
2022-09-06T10:49:58.709Z,1.73
2022-09-06T10:55:04.891Z,1.58
2022-09-06T11:00:13.258Z,1.45
2022-09-06T11:05:38.293Z,1.63
2022-09-06T11:10:45.378Z,1.40
2022-09-06T11:15:50.033Z,1.40
2022-09-06T11:21:08.959Z,1.80
2022-09-06T11:26:30.951Z,1.23
2022-09-06T11:37:08.508Z,1.40
2022-09-06T11:43:03.055Z,1.13
2022-09-06T11:48:23.513Z,1.02
2022-09-06T11:53:48.253Z,1.20
2022-09-06T11:59:01.755Z,1.38
2022-09-06T12:04:07.279Z,0.98
2022-09-06T12:09:37.361Z,1.42
2022-09-06T12:14:43.578Z,1.23
2022-09-06T12:19:45.353Z,1.40
2022-09-06T12:24:47.404Z,1.20
2022-09-06T12:40:21.587Z,1.50
2022-09-06T12:45:27.415Z,1.30
2022-09-06T12:50:31.555Z,1.10
2022-09-06T12:55:36.847Z,1.80
2022-09-06T13:00:51.338Z,1.35
2022-09-06T13:05:54.643Z,1.20
2022-09-06T13:10:57.215Z,1.00
2022-09-06T13:15:59.139Z,0.90
2022-09-06T13:26:03.454Z,0.98
2022-09-06T13:31:12.977Z,0.75
2022-09-06T13:36:22.577Z,1.00
2022-09-06T13:41:24.275Z,1.17
2022-09-06T13:46:26.494Z,1.20
2022-09-06T13:51:28.503Z,1.10
2022-09-06T13:56:30.253Z,1.02
2022-09-06T14:01:33.630Z,1.00
2022-09-06T14:06:36.980Z,0.95
2022-09-06T14:11:39.128Z,1.10
2022-09-06T14:16:40.860Z,1.10
2022-09-06T14:21:43.270Z,1.00
2022-09-06T14:26:45.065Z,1.08
2022-09-06T14:31:48.367Z,0.90
2022-09-06T14:36:50.137Z,1.23
2022-09-06T14:41:52.135Z,0.93
2022-09-06T14:51:56.471Z,1.00
2022-09-06T14:56:58.180Z,1.20
2022-09-06T15:02:00.095Z,1.08
2022-09-06T15:07:01.923Z,0.93
2022-09-06T15:12:04.126Z,0.90
2022-09-06T15:22:10.582Z,1.10
2022-09-06T15:27:12.456Z,1.05
2022-09-06T15:32:14.210Z,1.10
2022-09-06T15:37:15.937Z,0.90
2022-09-06T15:42:17.898Z,0.90
2022-09-06T15:47:19.641Z,1.13
2022-09-06T15:52:21.379Z,0.90
2022-09-06T15:57:23.121Z,0.80
2022-09-06T16:02:24.972Z,0.90
2022-09-06T16:07:27.042Z,0.90
2022-09-06T16:12:28.792Z,0.70
2022-09-06T16:17:31.215Z,1.17
2022-09-06T16:22:33.122Z,1.70
2022-09-06T16:27:34.851Z,1.00
2022-09-06T16:32:36.909Z,0.88
2022-09-06T16:37:38.637Z,1.10
2022-09-06T16:42:40.406Z,1.00
2022-09-06T16:47:42.179Z,0.90
2022-09-06T16:52:43.907Z,0.88
2022-09-06T16:57:45.712Z,0.80
2022-09-06T17:02:47.762Z,0.90
2022-09-06T17:07:49.702Z,1.23
2022-09-06T17:12:51.439Z,0.80
2022-09-06T17:17:53.171Z,0.82
2022-09-06T17:22:55.000Z,1.00
2022-09-06T17:27:57.903Z,1.10
2022-09-06T17:32:59.626Z,0.80
2022-09-06T17:38:01.582Z,1.20
2022-09-06T17:43:05.070Z,1.00
2022-09-06T17:48:06.895Z,0.80
2022-09-06T17:53:08.617Z,1.10
2022-09-06T17:58:10.390Z,0.90
2022-09-06T18:03:12.455Z,0.70
2022-09-06T18:08:14.251Z,1.20
2022-09-06T18:13:15.983Z,1.00
2022-09-06T18:18:18.287Z,1.00
2022-09-06T18:23:20.350Z,0.90
2022-09-06T18:28:22.174Z,1.08
2022-09-06T18:33:24.193Z,1.35
2022-09-06T18:38:26.456Z,1.33
2022-09-06T18:43:36.151Z,0.95
2022-09-06T18:48:38.391Z,1.15
2022-09-06T18:53:44.750Z,1.10
2022-09-06T18:58:46.739Z,1.15
2022-09-06T19:03:48.532Z,1.08
2022-09-06T19:08:53.706Z,1.10
2022-09-06T19:13:56.932Z,1.15
2022-09-06T19:19:08.534Z,1.15
2022-09-06T19:24:11.980Z,1.30
2022-09-06T19:34:16.799Z,1.20
2022-09-06T19:39:18.947Z,1.17
2022-09-06T19:44:20.782Z,1.23
2022-09-06T19:49:23.272Z,1.13
2022-09-06T19:54:25.089Z,1.05
2022-09-06T19:59:26.997Z,1.20
2022-09-06T20:04:29.160Z,1.10
2022-09-06T20:09:30.893Z,1.10
2022-09-06T20:14:32.687Z,1.30
2022-09-06T20:19:34.410Z,1.30
2022-09-06T20:24:37.812Z,1.17
2022-09-06T20:29:39.570Z,1.25
2022-09-06T20:34:41.657Z,0.90
2022-09-06T20:39:43.638Z,1.10
2022-09-06T20:44:45.555Z,1.20
2022-09-06T20:49:47.277Z,1.40
2022-09-06T20:54:50.025Z,1.15
2022-09-06T20:59:51.891Z,1.10
2022-09-06T21:04:53.661Z,0.93
2022-09-06T21:09:55.401Z,1.13
2022-09-06T21:14:57.186Z,1.00
2022-09-06T21:19:58.977Z,1.00
2022-09-06T21:25:00.849Z,1.30
2022-09-06T21:30:02.620Z,1.58
2022-09-06T21:35:04.679Z,1.50
2022-09-06T21:40:07.097Z,1.50
2022-09-06T21:45:09.338Z,1.30
2022-09-06T21:50:11.093Z,1.45
2022-09-06T21:55:15.541Z,1.10
2022-09-06T22:00:17.597Z,1.58
2022-09-06T22:05:19.342Z,1.20
2022-09-06T22:10:23.395Z,1.38
2022-09-06T22:15:25.477Z,1.40
2022-09-06T22:20:27.259Z,1.50
2022-09-06T22:25:29.693Z,1.63
2022-09-06T22:30:31.503Z,1.60
2022-09-06T22:35:33.246Z,1.35
2022-09-06T22:40:34.999Z,1.60
2022-09-06T22:45:37.097Z,1.75
2022-09-06T22:50:43.413Z,1.20
2022-09-06T22:55:48.608Z,1.30
2022-09-06T23:00:50.866Z,1.40
2022-09-06T23:05:52.626Z,1.30
2022-09-06T23:10:54.422Z,1.60
2022-09-06T23:16:08.441Z,1.30
2022-09-06T23:21:15.965Z,1.30
2022-09-06T23:26:23.377Z,1.30
2022-09-06T23:31:27.866Z,1.42
2022-09-06T23:36:30.575Z,1.48
2022-09-06T23:41:32.302Z,1.42
2022-09-06T23:46:34.057Z,1.40
2022-09-06T23:51:35.820Z,1.40
2022-09-06T23:56:37.544Z,1.60
